createdAt,value
2017-07-09T00:02:12.280Z,63.80
2017-07-09T00:04:40.597Z,64.10
2017-07-09T00:07:08.888Z,64.00
2017-07-09T00:09:37.156Z,64.90
2017-07-09T00:12:05.556Z,64.10
2017-07-09T00:14:33.821Z,62.80
2017-07-09T00:17:02.087Z,64.30
2017-07-09T00:19:30.690Z,63.10
2017-07-09T00:21:59.719Z,65.20
2017-07-09T00:24:27.985Z,64.80
2017-07-09T00:26:56.605Z,62.80
2017-07-09T00:29:25.644Z,62.80
2017-07-09T00:31:54.029Z,62.80
2017-07-09T00:34:22.501Z,63.60
2017-07-09T00:36:50.772Z,63.40
2017-07-09T00:39:19.809Z,64.20
2017-07-09T00:41:48.106Z,64.10
2017-07-09T00:44:17.141Z,63.90
2017-07-09T00:46:45.409Z,64.10
2017-07-09T00:49:13.710Z,62.70
2017-07-09T00:51:42.748Z,65.00
2017-07-09T00:54:11.015Z,64.90
2017-07-09T00:56:39.322Z,65.30
2017-07-09T00:59:08.346Z,66.60
2017-07-09T01:01:36.608Z,66.50
2017-07-09T01:04:04.916Z,66.70
2017-07-09T01:06:33.956Z,65.80
2017-07-09T01:09:02.224Z,65.80
2017-07-09T01:11:30.620Z,66.00
2017-07-09T01:13:59.652Z,66.20
2017-07-09T01:16:27.928Z,66.10
2017-07-09T01:18:56.233Z,66.20
2017-07-09T01:21:24.505Z,66.90
2017-07-09T01:23:52.768Z,67.10
2017-07-09T01:26:21.076Z,66.80
2017-07-09T01:28:49.367Z,67.50
2017-07-09T01:31:17.621Z,67.80
2017-07-09T01:33:45.932Z,68.30
2017-07-09T01:36:14.211Z,68.00
2017-07-09T01:38:42.472Z,68.20
2017-07-09T01:41:10.793Z,68.20
2017-07-09T01:43:39.068Z,68.70
2017-07-09T01:46:07.355Z,68.90
2017-07-09T01:48:35.657Z,69.00
2017-07-09T01:51:04.692Z,69.10
2017-07-09T01:53:32.964Z,69.00
2017-07-09T01:56:01.265Z,69.10
2017-07-09T01:58:30.297Z,69.60
2017-07-09T02:00:58.620Z,69.40
2017-07-09T02:03:26.924Z,68.60
2017-07-09T02:05:55.233Z,67.40
2017-07-09T02:08:24.260Z,68.30
2017-07-09T02:10:52.572Z,68.20
2017-07-09T02:13:21.605Z,68.30
2017-07-09T02:15:49.873Z,68.10
2017-07-09T02:18:18.177Z,68.70
2017-07-09T02:20:46.445Z,68.40
2017-07-09T02:23:14.712Z,68.40
2017-07-09T02:25:43.101Z,68.20
2017-07-09T02:28:11.364Z,69.00
2017-07-09T02:30:39.632Z,69.20
2017-07-09T02:33:07.947Z,69.00
2017-07-09T02:35:36.977Z,69.00
2017-07-09T02:38:05.253Z,69.00
2017-07-09T02:40:34.552Z,68.70
2017-07-09T02:43:02.828Z,69.10
2017-07-09T02:45:31.861Z,70.80
2017-07-09T02:48:00.175Z,70.60
2017-07-09T02:50:29.201Z,70.90
2017-07-09T02:52:57.465Z,70.80
2017-07-09T02:55:25.773Z,70.70
2017-07-09T02:57:54.813Z,70.90
2017-07-09T03:00:23.108Z,70.80
2017-07-09T03:02:52.381Z,70.90
2017-07-09T03:05:20.652Z,70.80
2017-07-09T03:07:49.685Z,70.80
2017-07-09T03:10:18.004Z,70.80
2017-07-09T03:12:47.033Z,71.80
2017-07-09T03:15:15.296Z,71.80
2017-07-09T03:17:43.605Z,71.60
2017-07-09T03:20:11.873Z,72.00
2017-07-09T03:22:40.141Z,70.80
2017-07-09T03:25:08.453Z,71.30
2017-07-09T03:27:36.725Z,70.70
2017-07-09T03:30:04.999Z,70.90
2017-07-09T03:32:34.237Z,72.50
2017-07-09T03:35:02.692Z,72.40
2017-07-09T03:37:30.956Z,72.40
2017-07-09T03:39:59.265Z,72.50
2017-07-09T03:42:28.305Z,72.40
2017-07-09T03:44:56.568Z,72.30
2017-07-09T03:47:24.973Z,71.40
2017-07-09T03:49:54.005Z,73.40
2017-07-09T03:52:22.275Z,73.30
2017-07-09T03:54:50.612Z,73.10
2017-07-09T03:57:18.878Z,73.10
2017-07-09T03:59:47.160Z,72.00
2017-07-09T04:02:15.472Z,71.50
2017-07-09T04:04:43.752Z,71.00
2017-07-09T04:07:12.024Z,71.70
2017-07-09T04:09:40.545Z,72.10
2017-07-09T04:12:09.581Z,73.00
2017-07-09T04:14:37.845Z,72.10
2017-07-09T04:17:07.040Z,72.50
2017-07-09T04:19:35.312Z,72.40
2017-07-09T04:22:03.580Z,71.70
2017-07-09T04:24:31.902Z,71.10
2017-07-09T04:27:00.164Z,71.20
2017-07-09T04:29:28.433Z,71.20
2017-07-09T04:31:56.739Z,72.50
2017-07-09T04:34:25.769Z,72.20
2017-07-09T04:36:54.041Z,71.40
2017-07-09T04:39:22.644Z,71.30
2017-07-09T04:41:51.690Z,72.30
2017-07-09T04:44:19.957Z,72.30
2017-07-09T04:46:48.260Z,71.60
2017-07-09T04:49:17.293Z,71.70
2017-07-09T04:51:45.560Z,71.70
2017-07-09T04:54:13.876Z,71.80
2017-07-09T04:56:42.145Z,71.90
2017-07-09T04:59:10.412Z,72.00
2017-07-09T05:01:38.716Z,71.30
2017-07-09T05:04:06.984Z,72.30
2017-07-09T05:06:35.251Z,72.30
2017-07-09T05:09:03.560Z,72.40
2017-07-09T05:11:31.828Z,72.50
2017-07-09T05:14:00.096Z,72.60
2017-07-09T05:16:28.397Z,72.80
2017-07-09T05:18:56.665Z,72.90
2017-07-09T05:21:25.692Z,73.10
2017-07-09T05:23:54.011Z,73.00
2017-07-09T05:26:23.040Z,72.00
2017-07-09T05:28:51.305Z,71.90
2017-07-09T05:31:19.606Z,71.40
2017-07-09T05:33:48.637Z,71.30
2017-07-09T05:36:16.904Z,71.20
2017-07-09T05:38:45.206Z,71.60
2017-07-09T05:41:14.236Z,70.70
2017-07-09T05:43:42.501Z,70.60
2017-07-09T05:46:10.808Z,70.80
2017-07-09T05:48:39.840Z,72.20
2017-07-09T05:51:08.111Z,71.30
2017-07-09T05:53:36.436Z,71.00
2017-07-09T05:56:04.713Z,70.70
2017-07-09T05:58:32.972Z,70.20
2017-07-09T06:01:01.391Z,70.00
2017-07-09T06:03:29.661Z,69.80
2017-07-09T06:05:58.694Z,70.00
2017-07-09T06:08:26.996Z,70.60
2017-07-09T06:10:56.033Z,69.80
2017-07-09T06:13:24.300Z,69.00
2017-07-09T06:15:52.630Z,68.90
2017-07-09T06:18:20.896Z,68.60
2017-07-09T06:20:49.169Z,68.60
2017-07-09T06:23:17.476Z,67.60
2017-07-09T06:25:45.745Z,68.20
2017-07-09T06:28:14.778Z,66.40
2017-07-09T06:30:43.186Z,66.40
2017-07-09T06:33:12.270Z,65.80
2017-07-09T06:35:40.500Z,65.70
2017-07-09T06:38:08.997Z,65.00
2017-07-09T06:40:38.037Z,64.70
2017-07-09T06:43:06.317Z,64.10
2017-07-09T06:45:34.636Z,64.10
2017-07-09T06:48:02.908Z,63.30
2017-07-09T06:50:32.200Z,64.00
2017-07-09T06:53:00.812Z,64.30
2017-07-09T06:55:29.845Z,64.10
2017-07-09T06:57:58.114Z,63.40
2017-07-09T07:00:26.421Z,63.10
2017-07-09T07:02:55.456Z,62.10
2017-07-09T07:05:23.725Z,62.10
2017-07-09T07:07:52.223Z,60.00
2017-07-09T07:10:21.261Z,59.70
2017-07-09T07:12:49.527Z,59.60
2017-07-09T07:15:20.079Z,58.40
2017-07-09T07:17:48.793Z,58.30
2017-07-09T07:20:17.085Z,58.00
2017-07-09T07:22:45.388Z,57.70
2017-07-09T07:25:14.723Z,57.80
2017-07-09T07:27:42.985Z,57.90
2017-07-09T07:30:11.333Z,56.70
2017-07-09T07:32:39.617Z,58.10
2017-07-09T07:35:07.884Z,56.20
2017-07-09T07:37:36.213Z,54.40
2017-07-09T07:40:04.484Z,55.30
2017-07-09T07:42:32.748Z,55.30
2017-07-09T07:45:01.072Z,56.10
2017-07-09T07:47:29.345Z,55.70
2017-07-09T07:49:57.620Z,55.10
2017-07-09T07:52:26.047Z,54.30
2017-07-09T07:54:54.353Z,53.20
2017-07-09T07:57:22.627Z,53.50
2017-07-09T07:59:50.929Z,55.60
2017-07-09T08:02:19.212Z,54.60
2017-07-09T08:04:47.481Z,54.50
2017-07-09T08:07:15.793Z,51.90
2017-07-09T08:09:44.066Z,51.00
2017-07-09T08:12:13.375Z,50.10
2017-07-09T08:14:42.746Z,50.10
2017-07-09T08:17:11.783Z,51.20
2017-07-09T08:19:40.063Z,51.10
2017-07-09T08:22:08.388Z,50.20
2017-07-09T08:24:36.669Z,50.00
2017-07-09T08:27:04.953Z,50.70
2017-07-09T08:29:33.252Z,52.30
2017-07-09T08:32:01.541Z,51.90
2017-07-09T08:34:29.837Z,52.20
2017-07-09T08:36:58.929Z,50.00
2017-07-09T08:39:27.964Z,50.90
2017-07-09T08:41:56.248Z,50.90
2017-07-09T08:44:25.360Z,50.00
2017-07-09T08:46:53.645Z,50.00
2017-07-09T08:49:21.921Z,50.00
2017-07-09T08:51:50.443Z,50.00
2017-07-09T08:54:18.719Z,49.80
2017-07-09T08:56:46.994Z,50.00
2017-07-09T08:59:15.417Z,49.90
2017-07-09T09:01:44.474Z,49.00
2017-07-09T09:04:12.749Z,49.00
2017-07-09T09:06:41.072Z,50.00
2017-07-09T09:09:09.345Z,48.80
2017-07-09T09:11:37.636Z,48.00
2017-07-09T09:14:05.960Z,47.00
2017-07-09T09:16:34.245Z,47.40
2017-07-09T09:19:02.521Z,47.70
2017-07-09T09:21:30.841Z,46.20
2017-07-09T09:23:59.108Z,49.20
2017-07-09T09:26:27.384Z,44.60
2017-07-09T09:28:55.696Z,43.30
2017-07-09T09:31:23.977Z,43.30
2017-07-09T09:33:52.247Z,42.50
2017-07-09T09:36:20.572Z,43.50
2017-07-09T09:38:49.617Z,46.40
2017-07-09T09:41:17.913Z,46.40
2017-07-09T09:43:46.996Z,46.50
2017-07-09T09:46:15.281Z,46.40
2017-07-09T09:48:43.558Z,45.40
2017-07-09T09:51:12.081Z,46.10
2017-07-09T09:53:41.120Z,44.20
2017-07-09T09:56:09.393Z,44.00
2017-07-09T09:58:37.709Z,44.20
2017-07-09T10:01:05.984Z,45.00
2017-07-09T10:03:34.259Z,45.70
2017-07-09T10:06:02.564Z,44.20
2017-07-09T10:08:31.690Z,44.90
2017-07-09T10:10:59.964Z,44.70
2017-07-09T10:13:28.284Z,45.30
2017-07-09T10:15:56.557Z,45.30
2017-07-09T10:18:24.841Z,45.10
2017-07-09T10:20:53.163Z,47.10
2017-07-09T10:23:22.196Z,45.10
2017-07-09T10:25:50.468Z,45.00
2017-07-09T10:28:18.796Z,44.00
2017-07-09T10:30:47.073Z,44.20
2017-07-09T10:33:15.357Z,43.40
2017-07-09T10:35:43.684Z,42.90
2017-07-09T10:38:11.956Z,43.90
2017-07-09T10:40:40.229Z,42.50
2017-07-09T10:43:08.540Z,43.80
2017-07-09T10:45:36.829Z,43.60
2017-07-09T10:48:05.112Z,44.40
2017-07-09T10:50:33.436Z,42.50
2017-07-09T10:53:01.727Z,41.50
2017-07-09T10:55:30.007Z,42.50
2017-07-09T10:57:58.320Z,41.40
2017-07-09T11:00:26.589Z,39.40
2017-07-09T11:02:54.953Z,42.50
2017-07-09T11:05:23.490Z,38.70
2017-07-09T11:07:52.524Z,40.10
2017-07-09T11:10:20.845Z,40.10
2017-07-09T11:12:49.294Z,42.50
2017-07-09T11:15:17.555Z,38.40
2017-07-09T11:17:46.588Z,39.20
2017-07-09T11:20:14.909Z,39.10
2017-07-09T11:22:43.263Z,36.30
2017-07-09T11:25:11.525Z,37.90
2017-07-09T11:27:41.105Z,38.20
2017-07-09T11:30:10.168Z,37.60
2017-07-09T11:32:38.491Z,37.60
2017-07-09T11:35:07.536Z,40.50
2017-07-09T11:37:35.809Z,40.30
2017-07-09T11:40:04.092Z,34.50
2017-07-09T11:42:32.409Z,37.00
2017-07-09T11:45:01.448Z,35.40
2017-07-09T11:47:29.713Z,35.60
2017-07-09T11:49:58.022Z,38.40
2017-07-09T11:52:27.056Z,34.20
2017-07-09T11:54:55.329Z,34.10
2017-07-09T11:57:23.942Z,35.20
2017-07-09T11:59:52.225Z,35.00
2017-07-09T12:02:20.497Z,32.70
2017-07-09T12:04:48.814Z,34.90
2017-07-09T12:07:17.848Z,34.20
2017-07-09T12:09:46.117Z,34.40
2017-07-09T12:12:14.412Z,32.50
2017-07-09T12:14:43.452Z,32.50
2017-07-09T12:17:11.721Z,32.50
2017-07-09T12:19:40.053Z,32.20
2017-07-09T12:22:08.506Z,32.40
2017-07-09T12:24:37.529Z,32.50
2017-07-09T12:27:05.872Z,32.40
2017-07-09T12:29:34.142Z,31.00
2017-07-09T12:32:02.412Z,32.60
2017-07-09T12:34:30.744Z,36.80
2017-07-09T12:36:59.178Z,30.60
2017-07-09T12:39:27.452Z,35.10
2017-07-09T12:41:55.768Z,30.20
2017-07-09T12:44:24.044Z,30.00
2017-07-09T12:46:52.309Z,29.80
2017-07-09T12:49:20.637Z,29.50
2017-07-09T12:51:48.900Z,30.90
2017-07-09T12:54:17.173Z,30.20
2017-07-09T12:56:45.492Z,30.10
2017-07-09T12:59:13.772Z,30.70
2017-07-09T13:01:42.056Z,29.70
2017-07-09T13:04:10.359Z,30.30
2017-07-09T13:06:38.637Z,32.30
2017-07-09T13:09:06.917Z,33.10
2017-07-09T13:11:35.234Z,31.80
2017-07-09T13:14:04.265Z,28.80
2017-07-09T13:16:32.541Z,28.80
2017-07-09T13:19:01.240Z,29.00
2017-07-09T13:21:30.280Z,30.00
2017-07-09T13:23:58.552Z,29.80
2017-07-09T13:26:27.048Z,29.30
2017-07-09T13:28:56.816Z,28.20
2017-07-09T13:31:25.417Z,28.20
2017-07-09T13:33:54.502Z,28.20
2017-07-09T13:36:22.792Z,28.30
2017-07-09T13:38:51.065Z,27.80
2017-07-09T13:41:19.373Z,29.70
2017-07-09T13:43:48.425Z,27.50
2017-07-09T13:46:16.690Z,27.50
2017-07-09T13:48:44.989Z,26.40
2017-07-09T13:51:14.049Z,27.80
2017-07-09T13:53:42.335Z,27.90
2017-07-09T13:56:11.408Z,28.50
2017-07-09T13:58:39.681Z,28.40
2017-07-09T14:01:07.961Z,29.70
2017-07-09T14:03:36.269Z,30.10
2017-07-09T14:06:04.657Z,30.00
2017-07-09T14:08:33.680Z,30.10
2017-07-09T14:11:02.202Z,29.50
2017-07-09T14:13:31.249Z,30.50
2017-07-09T14:15:59.507Z,30.60
2017-07-09T14:18:27.908Z,29.30
2017-07-09T14:20:56.949Z,31.90
2017-07-09T14:23:25.216Z,31.80
2017-07-09T14:25:53.528Z,31.00
2017-07-09T14:28:21.800Z,30.90
2017-07-09T14:30:50.083Z,30.70
2017-07-09T14:33:18.384Z,32.10
2017-07-09T14:35:47.563Z,32.80
2017-07-09T14:38:16.605Z,33.20
2017-07-09T14:40:44.918Z,33.20
2017-07-09T14:43:14.299Z,31.30
2017-07-09T14:45:42.568Z,31.30
2017-07-09T14:48:10.892Z,32.10
2017-07-09T14:50:39.173Z,31.40
2017-07-09T14:53:07.444Z,33.30
2017-07-09T14:55:36.629Z,31.90
2017-07-09T14:58:05.674Z,33.40
2017-07-09T15:00:33.941Z,33.40
2017-07-09T15:03:02.248Z,32.20
2017-07-09T15:05:30.517Z,34.40
2017-07-09T15:07:58.789Z,34.40
2017-07-09T15:10:27.220Z,34.20
2017-07-09T15:12:56.241Z,34.40
2017-07-09T15:15:24.513Z,34.00
2017-07-09T15:17:52.813Z,34.00
2017-07-09T15:20:21.857Z,34.60
2017-07-09T15:22:50.117Z,35.10
2017-07-09T15:25:18.412Z,35.10
2017-07-09T15:27:47.461Z,35.10
2017-07-09T15:30:16.428Z,35.10
2017-07-09T15:32:45.653Z,35.60
2017-07-09T15:35:14.692Z,37.40
2017-07-09T15:37:42.965Z,36.60
2017-07-09T15:40:11.273Z,37.60
2017-07-09T15:42:39.547Z,36.60
2017-07-09T15:45:07.833Z,36.20
2017-07-09T15:47:36.160Z,38.00
2017-07-09T15:50:05.197Z,37.10
2017-07-09T15:52:33.472Z,37.10
2017-07-09T15:55:02.576Z,37.50
2017-07-09T15:57:31.617Z,37.90
2017-07-09T15:59:59.885Z,37.80
2017-07-09T16:02:28.569Z,37.90
2017-07-09T16:04:57.605Z,37.80
2017-07-09T16:07:25.879Z,37.70
2017-07-09T16:09:54.377Z,37.60
2017-07-09T16:12:23.419Z,37.90
2017-07-09T16:14:51.709Z,37.60
2017-07-09T16:17:20.813Z,37.80
2017-07-09T16:19:49.842Z,38.30
2017-07-09T16:22:18.119Z,38.30
2017-07-09T16:24:46.439Z,37.70
2017-07-09T16:27:14.713Z,39.20
2017-07-09T16:29:42.988Z,38.50
2017-07-09T16:32:11.296Z,38.70
2017-07-09T16:34:39.581Z,38.90
2017-07-09T16:37:07.855Z,39.20
2017-07-09T16:39:36.169Z,39.00
2017-07-09T16:42:05.208Z,39.20
2017-07-09T16:44:33.624Z,39.40
2017-07-09T16:47:02.713Z,40.30
2017-07-09T16:49:30.988Z,40.20
2017-07-09T16:51:59.268Z,40.50
2017-07-09T16:54:27.587Z,40.60
2017-07-09T16:56:56.630Z,41.10
2017-07-09T16:59:24.896Z,41.10
2017-07-09T17:01:53.380Z,40.10
2017-07-09T17:04:22.424Z,40.30
2017-07-09T17:06:50.704Z,40.20
2017-07-09T17:09:19.020Z,40.50
2017-07-09T17:11:47.301Z,40.10
2017-07-09T17:14:15.577Z,40.80
2017-07-09T17:16:43.900Z,40.60
2017-07-09T17:19:12.176Z,40.70
2017-07-09T17:21:40.466Z,41.50
2017-07-09T17:24:08.776Z,41.80
2017-07-09T17:26:37.040Z,41.80
2017-07-09T17:29:05.323Z,41.80
2017-07-09T17:31:34.389Z,42.00
2017-07-09T17:34:02.664Z,43.20
2017-07-09T17:36:30.940Z,43.80
2017-07-09T17:38:59.265Z,43.50
2017-07-09T17:41:27.545Z,43.50
2017-07-09T17:43:55.816Z,43.90
2017-07-09T17:46:24.129Z,43.90
2017-07-09T17:48:53.168Z,44.90
2017-07-09T17:51:21.445Z,44.80
2017-07-09T17:53:49.773Z,44.80
2017-07-09T17:56:18.056Z,44.80
2017-07-09T17:58:46.342Z,45.40
2017-07-09T18:01:16.236Z,46.20
2017-07-09T18:03:44.501Z,46.10
2017-07-09T18:06:12.781Z,45.00
2017-07-09T18:08:41.103Z,45.10
2017-07-09T18:11:09.380Z,45.00
2017-07-09T18:13:38.432Z,45.20
2017-07-09T18:16:06.747Z,45.10
2017-07-09T18:18:35.032Z,45.90
2017-07-09T18:21:03.308Z,45.80
2017-07-09T18:23:31.628Z,46.00
2017-07-09T18:26:00.865Z,46.50
2017-07-09T18:28:29.141Z,45.80
2017-07-09T18:30:57.461Z,46.30
2017-07-09T18:33:25.734Z,46.00
2017-07-09T18:35:54.013Z,46.00
2017-07-09T18:38:22.516Z,46.20
2017-07-09T18:40:51.561Z,46.00
2017-07-09T18:43:19.832Z,46.00
2017-07-09T18:45:48.226Z,45.90
2017-07-09T18:48:19.201Z,46.60
2017-07-09T18:50:47.493Z,46.50
2017-07-09T18:53:15.790Z,45.90
2017-07-09T18:55:44.088Z,46.40
2017-07-09T18:58:12.412Z,47.10
2017-07-09T19:00:41.061Z,47.00
2017-07-09T19:03:10.099Z,47.40
2017-07-09T19:05:38.413Z,47.30
2017-07-09T19:08:06.689Z,47.80
2017-07-09T19:10:34.968Z,48.00
2017-07-09T19:13:06.267Z,48.10
2017-07-09T19:15:35.301Z,48.80
2017-07-09T19:18:03.576Z,48.70
2017-07-09T19:20:31.884Z,48.90
2017-07-09T19:23:00.177Z,49.90
2017-07-09T19:25:28.441Z,49.40
2017-07-09T19:27:56.765Z,50.20
2017-07-09T19:30:25.043Z,50.10
2017-07-09T19:32:53.332Z,50.10
2017-07-09T19:35:21.649Z,50.00
2017-07-09T19:37:49.928Z,50.00
2017-07-09T19:40:18.209Z,50.60
2017-07-09T19:42:46.533Z,50.90
2017-07-09T19:45:14.808Z,51.60
2017-07-09T19:47:43.084Z,51.60
2017-07-09T19:50:11.452Z,51.50
2017-07-09T19:52:39.757Z,52.10
2017-07-09T19:55:08.801Z,52.70
2017-07-09T19:57:37.133Z,52.70
2017-07-09T20:00:05.429Z,53.10
2017-07-09T20:02:33.744Z,53.40
2017-07-09T20:05:02.103Z,53.50
2017-07-09T20:07:30.378Z,53.60
2017-07-09T20:09:58.665Z,53.60
2017-07-09T20:12:27.080Z,54.10
2017-07-09T20:14:56.113Z,54.90
2017-07-09T20:17:24.385Z,54.90
2017-07-09T20:19:52.889Z,54.80
2017-07-09T20:22:21.920Z,55.70
2017-07-09T20:24:50.196Z,55.70
2017-07-09T20:27:18.517Z,55.70
2017-07-09T20:29:46.797Z,55.50
2017-07-09T20:32:15.070Z,55.60
2017-07-09T20:34:43.375Z,55.70
2017-07-09T20:37:11.760Z,56.40
2017-07-09T20:39:40.044Z,56.60
2017-07-09T20:42:08.360Z,56.60
2017-07-09T20:44:37.463Z,56.40
2017-07-09T20:47:05.681Z,56.40
2017-07-09T20:49:34.163Z,57.20
2017-07-09T20:52:03.204Z,57.70
2017-07-09T20:54:31.488Z,57.60
2017-07-09T20:57:00.772Z,57.60
2017-07-09T20:59:29.045Z,57.50
2017-07-09T21:01:57.313Z,57.50
2017-07-09T21:04:26.396Z,58.50
2017-07-09T21:06:55.432Z,58.10
2017-07-09T21:09:23.705Z,58.00
2017-07-09T21:11:52.013Z,58.60
2017-07-09T21:14:20.285Z,59.00
2017-07-09T21:16:48.560Z,59.00
2017-07-09T21:19:16.885Z,59.30
2017-07-09T21:21:45.941Z,59.70
2017-07-09T21:24:14.217Z,59.60
2017-07-09T21:26:43.297Z,60.40
2017-07-09T21:29:12.336Z,60.60
2017-07-09T21:31:40.608Z,60.50
2017-07-09T21:34:08.920Z,61.00
2017-07-09T21:36:37.197Z,60.60
2017-07-09T21:39:05.467Z,60.80
2017-07-09T21:41:33.990Z,60.80
2017-07-09T21:44:03.024Z,61.40
2017-07-09T21:46:31.292Z,61.50
2017-07-09T21:48:59.809Z,61.60
2017-07-09T21:51:28.840Z,61.70
2017-07-09T21:53:57.113Z,61.60
2017-07-09T21:56:25.412Z,62.30
2017-07-09T21:58:53.689Z,62.40
2017-07-09T22:01:21.956Z,61.80
2017-07-09T22:03:50.264Z,62.80
2017-07-09T22:06:18.530Z,62.50
2017-07-09T22:08:47.003Z,62.60
2017-07-09T22:11:16.100Z,62.30
2017-07-09T22:13:44.388Z,62.10
2017-07-09T22:16:12.657Z,62.50
2017-07-09T22:18:40.991Z,62.50
2017-07-09T22:21:09.265Z,63.10
2017-07-09T22:23:37.537Z,62.60
2017-07-09T22:26:05.867Z,63.00
2017-07-09T22:28:34.904Z,62.50
2017-07-09T22:31:03.176Z,62.40
2017-07-09T22:33:31.497Z,62.90
2017-07-09T22:35:59.765Z,62.90
2017-07-09T22:38:28.040Z,62.50
2017-07-09T22:40:56.552Z,62.60
2017-07-09T22:43:25.589Z,63.20
2017-07-09T22:45:53.858Z,63.10
2017-07-09T22:48:22.357Z,63.50
2017-07-09T22:50:51.392Z,63.30
2017-07-09T22:53:19.673Z,63.10
2017-07-09T22:55:47.989Z,63.40
2017-07-09T22:58:16.264Z,63.40
2017-07-09T23:00:44.533Z,63.20
2017-07-09T23:03:12.848Z,63.30
2017-07-09T23:05:41.881Z,64.50
2017-07-09T23:08:10.161Z,64.30
2017-07-09T23:10:38.457Z,64.50
2017-07-09T23:13:06.733Z,63.80
2017-07-09T23:15:35.005Z,63.60
2017-07-09T23:18:03.320Z,63.70
2017-07-09T23:20:31.593Z,64.30
2017-07-09T23:23:00.640Z,65.00
2017-07-09T23:25:28.936Z,64.90
2017-07-09T23:27:57.975Z,64.90
2017-07-09T23:30:26.250Z,64.80
2017-07-09T23:32:54.564Z,64.90
2017-07-09T23:35:24.196Z,64.80
2017-07-09T23:37:52.468Z,65.30
2017-07-09T23:40:20.796Z,65.20
2017-07-09T23:42:49.064Z,65.60
2017-07-09T23:45:17.333Z,66.10
2017-07-09T23:47:45.652Z,65.30
2017-07-09T23:50:13.924Z,65.60
2017-07-09T23:52:42.198Z,65.40
2017-07-09T23:55:10.505Z,65.30
2017-07-09T23:57:38.773Z,65.20
